You are not logged in, Click here to log in
機場資訊:ENGM Welcome to Taiwan Airways 台灣虛擬航空
ICAO: ENGM Country: 挪威歐倫薩可區
Latitude: 60.1939 Longitude: 11.1003
Total Arrivals: 11 Total Departures: 12
Latest Arrival: FS12 (ENTC-ENGM)CHU. CHUHAO Latest Departure: FS18 (ENGM-EDDL)ALAN. LIU
Scenery:
METAR : ENGM 141820Z VRB02KT 9999 BKN020 06/04 Q1015 NOSIG

奧斯陸加勒穆恩機場 OSL